createdAt,value
2019-03-02T00:02:07.021Z,48.53
2019-03-02T00:04:37.025Z,47.23
2019-03-02T00:07:08.012Z,47.50
2019-03-02T00:09:39.012Z,46.33
2019-03-02T00:12:09.208Z,46.17
2019-03-02T00:14:39.601Z,45.40
2019-03-02T00:17:09.908Z,48.53
2019-03-02T00:19:41.911Z,49.00
2019-03-02T00:22:11.666Z,49.57
2019-03-02T00:24:42.327Z,51.23
2019-03-02T00:27:12.809Z,46.23
2019-03-02T00:29:45.986Z,45.80
2019-03-02T00:32:14.417Z,44.53
2019-03-02T00:34:44.465Z,43.30
2019-03-02T00:37:14.438Z,42.57
2019-03-02T00:39:44.484Z,38.97
2019-03-02T00:42:16.981Z,41.53
2019-03-02T00:44:46.218Z,35.80
2019-03-02T00:47:16.245Z,35.70
2019-03-02T00:49:46.241Z,35.37
2019-03-02T00:52:16.552Z,35.40
2019-03-02T00:54:57.699Z,32.20
2019-03-02T00:57:18.715Z,31.57
2019-03-02T00:59:50.140Z,31.60
2019-03-02T01:02:20.237Z,30.90
2019-03-02T01:04:50.241Z,30.60
2019-03-02T01:07:20.794Z,32.40
2019-03-02T01:09:52.016Z,32.53
2019-03-02T01:12:22.005Z,32.73
2019-03-02T01:14:52.149Z,33.03
2019-03-02T01:17:22.194Z,33.50
2019-03-02T01:19:52.686Z,31.77
2019-03-02T01:22:23.761Z,33.10
2019-03-02T01:24:53.786Z,29.27
2019-03-02T01:27:23.887Z,29.17
2019-03-02T01:29:54.622Z,27.53
2019-03-02T01:32:25.533Z,28.60
2019-03-02T01:34:55.674Z,27.03
2019-03-02T01:37:25.718Z,23.53
2019-03-02T01:39:55.746Z,24.63
2019-03-02T01:42:29.775Z,26.17
2019-03-02T01:44:59.041Z,25.57
2019-03-02T01:47:29.037Z,24.20
2019-03-02T01:49:59.153Z,24.30
2019-03-02T01:52:30.606Z,24.97
2019-03-02T01:55:01.320Z,22.50
2019-03-02T01:57:31.296Z,24.83
2019-03-02T02:00:01.337Z,21.70
2019-03-02T02:02:32.752Z,22.70
2019-03-02T02:05:03.596Z,22.00
2019-03-02T02:07:33.849Z,19.60
2019-03-02T02:10:05.445Z,21.57
2019-03-02T02:12:35.488Z,21.30
2019-03-02T02:15:06.881Z,26.67
2019-03-02T02:17:36.977Z,20.13
2019-03-02T02:20:11.094Z,19.93
2019-03-02T02:22:40.574Z,21.10
2019-03-02T02:25:11.909Z,19.90
2019-03-02T02:27:41.873Z,20.70
2019-03-02T02:30:18.903Z,19.73
2019-03-02T02:32:49.141Z,21.13
2019-03-02T02:35:19.258Z,23.70
2019-03-02T02:37:49.586Z,21.80
2019-03-02T02:40:19.641Z,21.20
2019-03-02T02:42:49.895Z,27.00
2019-03-02T02:45:20.293Z,26.93
2019-03-02T02:47:53.766Z,21.47
2019-03-02T02:50:29.331Z,20.30
2019-03-02T02:52:54.136Z,20.43
2019-03-02T02:55:24.434Z,25.90
2019-03-02T02:57:54.625Z,21.10
2019-03-02T03:00:25.257Z,21.77
2019-03-02T03:02:55.348Z,21.70
2019-03-02T03:05:25.661Z,26.43
2019-03-02T03:07:56.075Z,24.63
2019-03-02T03:10:29.843Z,22.60
2019-03-02T03:13:02.179Z,24.53
2019-03-02T03:15:40.781Z,28.73
2019-03-02T03:18:14.393Z,27.43
2019-03-02T03:20:48.129Z,24.50
2019-03-02T03:23:15.395Z,24.67
2019-03-02T03:25:45.585Z,24.17
2019-03-02T03:28:15.566Z,23.63
2019-03-02T03:30:45.569Z,24.23
2019-03-02T03:33:16.129Z,21.67
2019-03-02T03:35:46.759Z,23.93
2019-03-02T03:38:16.906Z,24.43
2019-03-02T03:40:47.109Z,21.47
2019-03-02T03:43:17.388Z,22.60
2019-03-02T03:45:47.541Z,24.77
2019-03-02T03:48:19.322Z,26.20
2019-03-02T03:50:52.641Z,25.60
2019-03-02T03:53:21.825Z,26.17
2019-03-02T03:55:53.900Z,25.30
2019-03-02T03:58:24.000Z,24.80
2019-03-02T04:00:54.097Z,24.40
2019-03-02T04:03:24.459Z,27.90
2019-03-02T04:05:54.718Z,29.20
2019-03-02T04:08:28.882Z,28.10
2019-03-02T04:11:00.351Z,25.50
2019-03-02T04:13:28.527Z,22.60
2019-03-02T04:15:58.830Z,22.03
2019-03-02T04:19:06.237Z,23.07
2019-03-02T04:21:44.585Z,22.90
2019-03-02T04:24:14.713Z,22.73
2019-03-02T04:26:44.917Z,22.93
2019-03-02T04:29:14.851Z,23.17
2019-03-02T04:31:48.803Z,28.80
2019-03-02T04:34:21.341Z,27.97
2019-03-02T04:36:49.206Z,28.53
2019-03-02T04:39:19.389Z,24.93
2019-03-02T04:41:49.616Z,24.40
2019-03-02T04:44:20.121Z,23.87
2019-03-02T04:46:51.278Z,23.60
2019-03-02T04:49:22.104Z,26.83
2019-03-02T04:51:52.250Z,27.80
2019-03-02T04:54:22.566Z,25.93
2019-03-02T04:56:55.538Z,29.63
2019-03-02T04:59:24.389Z,29.90
2019-03-02T05:01:54.512Z,29.17
2019-03-02T05:04:24.681Z,30.40
2019-03-02T05:06:55.694Z,31.70
2019-03-02T05:09:25.745Z,31.83
2019-03-02T05:11:55.794Z,31.63
2019-03-02T05:14:25.913Z,33.87
2019-03-02T05:16:55.970Z,30.80
2019-03-02T05:19:29.161Z,32.80
2019-03-02T05:21:58.098Z,32.70
2019-03-02T05:24:28.107Z,30.40
2019-03-02T05:26:58.100Z,31.17
2019-03-02T05:29:28.566Z,32.43
2019-03-02T05:31:58.597Z,31.43
2019-03-02T05:34:28.885Z,31.27
2019-03-02T05:36:59.747Z,30.00
2019-03-02T05:39:30.577Z,31.17
2019-03-02T05:42:00.544Z,31.90
2019-03-02T05:44:30.626Z,32.90
2019-03-02T05:47:01.561Z,32.63
2019-03-02T05:49:32.185Z,34.03
2019-03-02T05:52:02.137Z,31.80
2019-03-02T05:54:32.110Z,30.67
2019-03-02T05:57:04.151Z,34.50
2019-03-02T05:59:33.739Z,32.30
2019-03-02T06:02:03.772Z,31.53
2019-03-02T06:04:34.522Z,33.73
2019-03-02T06:07:04.537Z,32.03
2019-03-02T06:09:34.580Z,30.13
2019-03-02T06:12:04.609Z,30.77
2019-03-02T06:14:34.668Z,29.87
2019-03-02T06:17:04.706Z,32.33
2019-03-02T06:19:34.744Z,30.50
2019-03-02T06:22:05.283Z,28.90
2019-03-02T06:24:37.778Z,27.27
2019-03-02T06:27:07.793Z,23.90
2019-03-02T06:29:38.819Z,23.00
2019-03-02T06:32:08.793Z,18.37
2019-03-02T06:34:38.734Z,17.40
2019-03-02T06:37:08.716Z,14.17
2019-03-02T06:39:41.018Z,15.10
2019-03-02T06:42:11.178Z,12.50
2019-03-02T06:44:41.289Z,12.77
2019-03-02T06:47:11.241Z,11.40
2019-03-02T06:49:41.246Z,10.70
2019-03-02T06:52:11.345Z,10.00
2019-03-02T06:54:44.935Z,9.07
2019-03-02T06:57:14.063Z,8.70
2019-03-02T06:59:44.998Z,8.43
2019-03-02T07:02:15.464Z,8.90
2019-03-02T07:04:45.493Z,8.50
2019-03-02T07:07:18.630Z,7.30
2019-03-02T07:09:47.109Z,7.30
2019-03-02T07:12:17.139Z,7.57
2019-03-02T07:14:47.567Z,7.17
2019-03-02T07:17:23.252Z,7.87
2019-03-02T07:20:02.053Z,7.00
2019-03-02T07:22:32.146Z,6.70
2019-03-02T07:25:05.058Z,7.33
2019-03-02T07:27:34.132Z,5.70
2019-03-02T07:30:04.580Z,6.70
2019-03-02T07:32:34.664Z,6.10
2019-03-02T07:35:05.683Z,6.30
2019-03-02T07:37:35.861Z,6.60
2019-03-02T07:40:09.121Z,6.93
2019-03-02T07:42:37.864Z,6.40
2019-03-02T07:45:10.110Z,6.43
2019-03-02T07:47:40.077Z,5.83
2019-03-02T07:50:10.749Z,6.77
2019-03-02T07:52:40.724Z,6.73
2019-03-02T07:55:14.736Z,6.43
2019-03-02T07:57:43.717Z,7.07
2019-03-02T08:00:17.846Z,7.00
2019-03-02T08:02:47.820Z,6.10
2019-03-02T08:05:18.233Z,6.80
2019-03-02T08:07:48.858Z,6.07
2019-03-02T08:10:18.963Z,6.27
2019-03-02T08:12:49.113Z,6.87
2019-03-02T08:15:24.154Z,6.97
2019-03-02T08:17:53.728Z,7.67
2019-03-02T08:20:26.204Z,7.17
2019-03-02T08:22:56.675Z,7.47
2019-03-02T08:25:26.621Z,8.20
2019-03-02T08:27:56.651Z,9.27
2019-03-02T08:30:29.838Z,8.80
2019-03-02T08:32:59.189Z,8.10
2019-03-02T08:35:29.809Z,8.83
2019-03-02T08:38:01.734Z,8.73
2019-03-02T08:40:31.485Z,9.13
2019-03-02T08:43:01.568Z,8.20
2019-03-02T08:45:32.044Z,9.57
2019-03-02T08:48:02.745Z,7.90
2019-03-02T08:50:32.750Z,8.97
2019-03-02T08:53:02.942Z,8.70
2019-03-02T08:55:44.403Z,8.17
2019-03-02T08:58:14.836Z,8.93
2019-03-02T09:00:51.558Z,7.60
2019-03-02T09:03:24.007Z,8.27
2019-03-02T09:05:55.583Z,7.53
2019-03-02T09:08:26.429Z,7.50
2019-03-02T09:10:56.661Z,7.00
2019-03-02T09:13:30.909Z,8.60
2019-03-02T09:16:01.522Z,9.20
2019-03-02T09:18:44.292Z,7.80
2019-03-02T09:21:05.198Z,8.10
2019-03-02T09:23:36.165Z,7.90
2019-03-02T09:26:07.026Z,7.67
2019-03-02T09:28:37.390Z,8.50
2019-03-02T09:31:07.515Z,8.27
2019-03-02T09:33:37.594Z,7.93
2019-03-02T09:36:07.668Z,7.60
2019-03-02T09:38:37.873Z,7.80
2019-03-02T09:41:07.854Z,8.00
2019-03-02T09:43:37.869Z,7.40
2019-03-02T09:46:07.884Z,7.97
2019-03-02T09:48:38.240Z,7.13
2019-03-02T09:51:08.701Z,7.80
2019-03-02T09:53:38.702Z,8.10
2019-03-02T09:56:08.718Z,8.83
2019-03-02T09:58:38.721Z,8.40
2019-03-02T10:01:08.751Z,9.10
2019-03-02T10:03:38.773Z,7.37
2019-03-02T10:06:08.900Z,9.90
2019-03-02T10:08:38.982Z,8.70
2019-03-02T10:11:08.973Z,8.80
2019-03-02T10:13:39.088Z,9.70
2019-03-02T10:16:09.204Z,9.70
2019-03-02T10:18:39.160Z,9.80
2019-03-02T10:21:09.280Z,10.53
2019-03-02T10:23:41.977Z,10.30
2019-03-02T10:26:11.041Z,12.03
2019-03-02T10:28:41.257Z,13.90
2019-03-02T10:31:13.343Z,13.77
2019-03-02T10:33:43.113Z,15.77
2019-03-02T10:36:13.135Z,15.20
2019-03-02T10:38:43.137Z,14.47
2019-03-02T10:41:16.698Z,14.03
2019-03-02T10:43:45.653Z,14.10
2019-03-02T10:46:15.944Z,13.40
2019-03-02T10:48:45.895Z,14.00
2019-03-02T10:51:15.985Z,15.77
2019-03-02T10:53:46.443Z,15.30
2019-03-02T10:56:16.618Z,14.50
2019-03-02T10:58:46.861Z,13.80
2019-03-02T11:01:16.882Z,15.30
2019-03-02T11:03:47.100Z,15.43
2019-03-02T11:06:42.717Z,13.23
2019-03-02T11:09:22.475Z,13.70
2019-03-02T11:12:11.578Z,14.33
2019-03-02T11:15:03.865Z,15.03
2019-03-02T11:18:00.304Z,13.33
2019-03-02T11:20:50.141Z,12.50
2019-03-02T11:23:34.689Z,12.10
2019-03-02T11:26:27.481Z,12.90
2019-03-02T11:29:17.782Z,11.40
2019-03-02T11:32:13.077Z,12.20
2019-03-02T11:35:02.644Z,13.03
2019-03-02T11:37:50.826Z,11.77
2019-03-02T11:40:29.577Z,13.30
2019-03-02T11:43:06.824Z,12.33
2019-03-02T11:45:51.517Z,14.73
2019-03-02T11:48:40.393Z,12.63
2019-03-02T11:51:35.490Z,14.40
2019-03-02T11:54:28.819Z,14.03
2019-03-02T11:57:21.142Z,14.00
2019-03-02T12:00:07.399Z,15.70
2019-03-02T12:03:14.442Z,14.50
2019-03-02T12:06:05.429Z,15.10
2019-03-02T12:08:43.269Z,12.50
2019-03-02T12:11:31.500Z,16.30
2019-03-02T12:14:11.329Z,13.90
2019-03-02T12:17:06.388Z,15.67
2019-03-02T12:19:45.796Z,15.23
2019-03-02T12:22:34.531Z,14.37
2019-03-02T12:25:22.493Z,14.27
2019-03-02T12:28:11.485Z,14.80
2019-03-02T12:31:00.344Z,13.90
2019-03-02T12:33:43.478Z,13.13
2019-03-02T12:36:35.325Z,13.90
2019-03-02T12:39:25.118Z,14.33
2019-03-02T12:42:32.197Z,14.77
2019-03-02T12:45:20.257Z,13.80
2019-03-02T12:48:07.581Z,14.43
2019-03-02T12:50:59.010Z,15.07
2019-03-02T12:53:55.851Z,15.27
2019-03-02T12:56:35.852Z,15.57
2019-03-02T12:59:31.174Z,15.90
2019-03-02T13:02:29.085Z,13.70
2019-03-02T13:05:21.432Z,13.63
2019-03-02T13:08:14.763Z,12.87
2019-03-02T13:10:53.374Z,16.27
2019-03-02T13:13:38.433Z,15.10
2019-03-02T13:16:29.560Z,14.03
2019-03-02T13:19:18.427Z,13.77
2019-03-02T13:22:13.310Z,16.25
2019-03-02T13:25:14.208Z,14.70
2019-03-02T13:28:12.423Z,15.20
2019-03-02T13:31:09.995Z,14.10
2019-03-02T13:34:08.146Z,15.50
2019-03-02T13:36:54.607Z,20.77
2019-03-02T13:39:36.940Z,17.73
2019-03-02T13:42:24.769Z,16.03
2019-03-02T13:45:19.128Z,17.70
2019-03-02T13:48:14.473Z,16.77
2019-03-02T13:50:59.981Z,14.77
2019-03-02T13:53:46.510Z,18.27
2019-03-02T13:56:38.158Z,18.30
2019-03-02T13:59:32.818Z,17.50
2019-03-02T14:02:38.319Z,17.03
2019-03-02T14:05:33.113Z,18.00
2019-03-02T14:08:22.123Z,17.50
2019-03-02T14:11:10.018Z,16.90
2019-03-02T14:13:58.726Z,21.30
2019-03-02T14:16:38.545Z,19.40
2019-03-02T14:19:32.641Z,18.70
2019-03-02T14:22:39.553Z,19.87
2019-03-02T14:25:27.218Z,19.60
2019-03-02T14:28:12.276Z,24.00
2019-03-02T14:31:01.028Z,22.03
2019-03-02T14:33:41.441Z,20.70
2019-03-02T14:36:36.465Z,24.90
2019-03-02T14:39:16.909Z,27.50
2019-03-02T14:42:07.830Z,25.87
2019-03-02T14:45:02.166Z,23.10
2019-03-02T14:47:50.550Z,25.57
2019-03-02T14:50:54.706Z,25.53
2019-03-02T14:53:52.957Z,26.60
2019-03-02T14:56:50.668Z,26.77
2019-03-02T14:59:39.622Z,27.30
2019-03-02T15:02:33.209Z,20.83
2019-03-02T15:05:09.350Z,22.60
2019-03-02T15:07:44.482Z,22.00
2019-03-02T15:10:37.220Z,22.80
2019-03-02T15:13:29.429Z,23.03
2019-03-02T15:16:38.172Z,22.97
2019-03-02T15:19:18.840Z,24.47
2019-03-02T15:22:12.170Z,14.93
2019-03-02T15:25:19.792Z,15.30
2019-03-02T15:28:14.866Z,10.73
2019-03-02T15:31:05.508Z,8.63
2019-03-02T15:33:51.674Z,9.90
2019-03-02T15:36:32.889Z,10.57
2019-03-02T15:39:36.712Z,11.67
2019-03-02T15:42:34.574Z,14.50
2019-03-02T15:45:18.886Z,9.60
2019-03-02T15:47:57.242Z,9.10
2019-03-02T15:50:51.309Z,9.00
2019-03-02T15:53:25.846Z,9.43
2019-03-02T15:56:06.809Z,8.60
2019-03-02T15:58:55.656Z,8.80
2019-03-02T16:01:38.489Z,8.70
2019-03-02T16:04:19.153Z,9.10
2019-03-02T16:07:07.265Z,9.20
2019-03-02T16:09:56.273Z,9.27
2019-03-02T16:12:54.265Z,8.90
2019-03-02T16:15:35.666Z,7.50
2019-03-02T16:18:27.766Z,8.90
2019-03-02T16:21:15.932Z,8.13
2019-03-02T16:24:12.211Z,7.03
2019-03-02T16:26:53.050Z,6.27
2019-03-02T16:29:36.216Z,7.70
2019-03-02T16:32:27.106Z,6.53
2019-03-02T16:35:21.037Z,5.80
2019-03-02T16:38:11.814Z,6.07
2019-03-02T16:41:03.621Z,6.63
2019-03-02T16:43:53.803Z,6.37
2019-03-02T16:46:46.137Z,6.63
2019-03-02T16:49:36.902Z,7.03
2019-03-02T16:52:33.313Z,8.77
2019-03-02T16:55:34.018Z,8.50
2019-03-02T16:58:21.677Z,7.53
2019-03-02T17:01:10.742Z,7.40
2019-03-02T17:03:51.339Z,7.20
2019-03-02T17:06:33.821Z,7.40
2019-03-02T17:09:17.461Z,7.43
2019-03-02T17:11:53.025Z,8.27
2019-03-02T17:14:47.148Z,7.00
2019-03-02T17:17:39.271Z,8.33
2019-03-02T17:20:31.733Z,8.47
2019-03-02T17:23:27.218Z,7.20
2019-03-02T17:26:05.057Z,8.87
2019-03-02T17:28:43.006Z,7.80
2019-03-02T17:31:21.403Z,7.83
2019-03-02T17:34:19.556Z,9.07
2019-03-02T17:37:07.173Z,7.77
2019-03-02T17:39:56.249Z,6.60
2019-03-02T17:42:36.313Z,7.10
2019-03-02T17:45:24.436Z,7.47
2019-03-02T17:48:12.172Z,8.70
2019-03-02T17:50:51.789Z,8.43
2019-03-02T17:53:40.929Z,10.20
2019-03-02T17:56:37.106Z,7.87
2019-03-02T17:59:26.438Z,7.93
2019-03-02T18:02:27.461Z,8.30
2019-03-02T18:05:28.483Z,9.00
2019-03-02T18:08:20.377Z,7.50
2019-03-02T18:10:56.428Z,6.57
2019-03-02T18:13:44.267Z,6.73
2019-03-02T18:16:41.292Z,6.97
2019-03-02T18:19:10.708Z,6.63
2019-03-02T18:21:40.690Z,5.90
2019-03-02T18:24:10.645Z,6.67
2019-03-02T18:26:40.640Z,6.80
2019-03-02T18:29:10.790Z,8.80
2019-03-02T18:31:40.809Z,8.13
2019-03-02T18:34:13.919Z,8.00
2019-03-02T18:36:45.966Z,8.27
2019-03-02T18:39:15.782Z,8.27
2019-03-02T18:41:45.785Z,8.07
2019-03-02T18:44:17.863Z,7.30
2019-03-02T18:46:49.407Z,8.13
2019-03-02T18:49:25.112Z,7.80
2019-03-02T18:52:26.220Z,8.83
2019-03-02T18:54:56.537Z,8.13
2019-03-02T18:57:26.557Z,8.57
2019-03-02T18:59:56.674Z,7.80
2019-03-02T19:02:26.693Z,7.37
2019-03-02T19:04:56.794Z,6.90
2019-03-02T19:07:26.837Z,6.07
2019-03-02T19:09:56.884Z,7.13
2019-03-02T19:12:28.105Z,7.00
2019-03-02T19:14:59.179Z,6.33
2019-03-02T19:17:29.238Z,6.17
2019-03-02T19:19:59.280Z,6.20
2019-03-02T19:22:29.309Z,6.10
2019-03-02T19:24:59.321Z,5.80
2019-03-02T19:27:29.625Z,6.10
2019-03-02T19:29:59.717Z,6.67
2019-03-02T19:32:29.709Z,6.60
2019-03-02T19:35:00.508Z,6.53
2019-03-02T19:37:30.588Z,5.57
2019-03-02T19:40:00.538Z,5.77
2019-03-02T19:42:30.689Z,5.93
2019-03-02T19:45:00.977Z,5.17
2019-03-02T19:47:31.026Z,6.57
2019-03-02T19:50:01.011Z,6.10
2019-03-02T19:52:30.992Z,6.40
2019-03-02T19:55:01.149Z,6.93
2019-03-02T19:57:31.473Z,5.90
2019-03-02T20:00:01.934Z,5.53
2019-03-02T20:02:32.146Z,5.63
2019-03-02T20:05:02.528Z,5.70
2019-03-02T20:07:32.953Z,5.57
2019-03-02T20:10:03.029Z,5.40
2019-03-02T20:12:33.173Z,5.30
2019-03-02T20:15:03.257Z,5.30
2019-03-02T20:17:33.350Z,4.87
2019-03-02T20:20:04.143Z,5.00
2019-03-02T20:22:34.137Z,4.83
2019-03-02T20:25:04.637Z,5.50
2019-03-02T20:27:34.624Z,5.73
2019-03-02T20:30:05.181Z,5.00
2019-03-02T20:32:36.957Z,5.07
2019-03-02T20:35:08.630Z,4.70
2019-03-02T20:37:38.690Z,5.17
2019-03-02T20:40:11.594Z,4.10
2019-03-02T20:42:41.751Z,4.80
2019-03-02T20:45:13.701Z,5.63
2019-03-02T20:47:43.864Z,5.80
2019-03-02T20:50:15.485Z,5.90
2019-03-02T20:52:45.576Z,7.43
2019-03-02T20:55:16.093Z,7.20
2019-03-02T20:57:46.340Z,8.60
2019-03-02T21:00:19.382Z,7.87
2019-03-02T21:02:49.608Z,6.23
2019-03-02T21:05:19.712Z,6.30
2019-03-02T21:07:49.768Z,6.10
2019-03-02T21:10:20.965Z,7.73
2019-03-02T21:12:59.805Z,7.53
2019-03-02T21:15:33.266Z,11.97
2019-03-02T21:18:03.541Z,11.30
2019-03-02T21:20:33.589Z,12.30
2019-03-02T21:23:03.941Z,16.83
2019-03-02T21:25:34.134Z,14.00
2019-03-02T21:28:04.100Z,15.83
2019-03-02T21:30:34.118Z,15.43
2019-03-02T21:33:05.336Z,15.07
2019-03-02T21:35:35.544Z,14.23
2019-03-02T21:38:05.556Z,15.23
2019-03-02T21:40:35.720Z,13.17
2019-03-02T21:43:06.127Z,13.10
2019-03-02T21:45:36.234Z,13.13
2019-03-02T21:48:06.329Z,15.30
2019-03-02T21:50:36.358Z,15.00
2019-03-02T21:53:06.384Z,15.10
2019-03-02T21:55:36.500Z,15.50
2019-03-02T21:58:06.620Z,15.63
2019-03-02T22:00:37.033Z,16.87
2019-03-02T22:03:07.059Z,16.90
2019-03-02T22:05:37.072Z,18.80
2019-03-02T22:08:07.262Z,18.20
2019-03-02T22:10:43.801Z,18.30
2019-03-02T22:13:13.807Z,18.27
2019-03-02T22:15:43.892Z,20.00
2019-03-02T22:18:13.907Z,19.40
2019-03-02T22:20:43.905Z,17.90
2019-03-02T22:23:14.173Z,18.97
2019-03-02T22:25:44.363Z,17.23
2019-03-02T22:28:14.321Z,18.10
2019-03-02T22:30:44.304Z,17.47
2019-03-02T22:33:14.330Z,18.03
2019-03-02T22:35:44.876Z,18.70
2019-03-02T22:38:15.001Z,17.97
2019-03-02T22:40:45.441Z,17.83
2019-03-02T22:43:15.525Z,14.97
2019-03-02T22:45:45.776Z,16.80
2019-03-02T22:48:16.022Z,16.17
2019-03-02T22:50:46.785Z,18.10
2019-03-02T22:53:16.988Z,17.70
2019-03-02T22:55:47.053Z,19.93
2019-03-02T22:58:17.089Z,19.23
2019-03-02T23:01:24.274Z,18.33
2019-03-02T23:03:54.234Z,17.50
2019-03-02T23:06:24.405Z,16.23
2019-03-02T23:08:54.406Z,17.10
2019-03-02T23:11:24.677Z,15.83
2019-03-02T23:13:54.825Z,14.10
2019-03-02T23:16:24.850Z,14.17
2019-03-02T23:18:54.852Z,15.13
2019-03-02T23:21:24.962Z,16.00
2019-03-02T23:23:55.000Z,15.20
2019-03-02T23:26:24.957Z,16.00
2019-03-02T23:28:54.964Z,15.20
2019-03-02T23:31:24.933Z,14.70
2019-03-02T23:33:55.010Z,15.90
2019-03-02T23:36:25.215Z,15.50
2019-03-02T23:38:55.446Z,16.10
2019-03-02T23:41:25.744Z,14.40
2019-03-02T23:43:56.266Z,15.47
2019-03-02T23:46:26.230Z,15.10
2019-03-02T23:48:56.327Z,13.13
2019-03-02T23:51:26.272Z,16.03
2019-03-02T23:53:56.877Z,15.00
2019-03-02T23:56:26.864Z,17.03
2019-03-02T23:58:56.993Z,21.43
